KGLR

Gaylord Regional Airport

Gaylord, Michigan, USA
METAR KGLR 180653Z AUTO 25011KT 3SM -SN BR OVC011 M04/M04 A2995 RMK AO2 SNB22 SLP161 P0000 T10391044 $
Observed Flight Rules
Feb-18 @ 06:53 UTC (21 minutes ago) Marginal Visual Flight Rules
Wind Visibility Clouds Conditions
250° at 11 knots 3 miles
  • Overcast at 1,100' AGL
  • Light Snow
  • Mist
Temperatures Readings Precipitation
Current -4°C / 25°F
Dewpoint -4°C / 25°F
Humidity 100%
Altimeter 29.95" Hg
Pressure 1016.1 hPa
Elevation 407
Current Rain 0.005
METAR KGLR 180653Z AUTO 25011KT 3SM -SN BR OVC011 M04/M04 A2995 RMK AO2 SNB22 SLP161 P0000 T10391044 $
Observed Flight Rules
Feb-18 @ 06:53 UTC
(21 minutes ago)
MVFR
Wind Visibility
250° at 11 knots 3 miles
Clouds
  • Overcast at 1,100' AGL
Conditions
  • Light Snow
  • Mist
Temperature Dewpoint
-4°C / 25°F -4°C / 25°F
Humidity Altimeter Pressure
100% 29.95" Hg 1016.1 hPa
Current Rain
0.005